This is the latest recevied weather packets stored in our database for station/object GW1542. If no packets are shown the sender has not sent any weather packets the latest 10 day(s).
| Time | Temp. | Humidity | Pressure | Rain* | Wind** | Luminosity | Snow |
|---|---|---|---|---|---|---|---|
| 1777972173 | 13.33° C | 66% | 1013.8 hPa | 0 mm | - | - | - |
| 1777971810 | 13.33° C | 65% | 1014.2 hPa | 0 mm | - | - | - |
| 1777970370 | 11.11° C | 74% | 1013.8 hPa | 0 mm | - | - | - |
| 1777967849 | 8.33° C | 88% | 1013.5 hPa | 0 mm | - | - | - |
| 1777967471 | 8.33° C | 87% | 1013.8 hPa | 0 mm | - | - | - |
| 1777966780 | 8.33° C | 86% | 1013.5 hPa | 0 mm | - | - | - |
| 1777959570 | 8.33° C | 87% | 1013.8 hPa | 0 mm | - | - | - |
| 1777959189 | 8.33° C | 88% | 1013.8 hPa | 0 mm | - | - | - |
| 1777958137 | 7.22° C | 91% | 1013.5 hPa | 0 mm | - | - | - |
| 1777949863 | 8.89° C | 81% | 1013.8 hPa | 0 mm | - | - | - |
| 1777946966 | 9.44° C | 77% | 1013.8 hPa | 0 mm | - | - | - |
| 1777946597 | 10° C | 77% | 1014.2 hPa | 0 mm | - | - | - |
| 1777945158 | 10° C | 76% | 1013.8 hPa | 0 mm | - | - | - |
| 1777943737 | 10.56° C | 74% | 1013.5 hPa | 0 mm | - | - | - |
| 1777943011 | 11.11° C | 73% | 1013.2 hPa | 0 mm | - | - | - |
| 1777940113 | 14.44° C | 58% | 1013.5 hPa | 0 mm | - | - | - |
| 1777939035 | 16.11° C | 54% | 1013.2 hPa | 0 mm | - | - | - |
| 1777937622 | 16.67° C | 52% | 1013.2 hPa | 0 mm | - | - | - |
| 1777935107 | 17.78° C | 49% | 1012.8 hPa | 0 mm | - | - | - |
| 1777934376 | 18.33° C | 47% | 1013.2 hPa | 0 mm | - | - | - |
| 1777933996 | 17.78° C | 49% | 1013.2 hPa | 0 mm | - | - | - |
| 1777932196 | 16.67° C | 52% | 1013.2 hPa | 0 mm | - | - | - |
| 1777929328 | 16.67° C | 55% | 1013.2 hPa | 0 mm | - | - | - |
| 1777928990 | 17.22° C | 54% | 1013.2 hPa | 0 mm | - | - | - |
| 1777927172 | 17.78° C | 43% | 1012.5 hPa | 0 mm | - | - | - |
* Rain since midnight (hover to see other rain measurements)
** Current wind speed in m/s (hover to see current wind gust speed)